Decoded Metar for YLHI ( in ) (IATA:) | Meteo·Mobile Aviation Weather
aviador You're here:

YLHI Decoded Metar

in
Report Time2019-05-23 10:00:00
UTC Time2019-05-23 10:43:48
Flight Rules vfr VFR
Wind110° at 07 kt
W.Decomp.*RWY 10: 6.9 kt HW 1.2 kt RCW
Visibility9999 m
Phenomena:N/A
Clouds:Scattered 032 Hf
Scattered 093 Hf
Expected CloudBase > 2,000 ft AGL from Temp-Dew spread
CeilingNone
Temp19°C
Dew Point14°C (73% RH)
AAT17.8°C
QNH1026 hPa
Raw Report
METAR YLHI 231000Z AUTO 11007KT 9999 // SCT032 SCT093 19/14 Q1026=####018000070####
SAAN40 FNLU 231000 RRA

Extra information for YLHI:More info

Social comments